London Express — DPLE — position and weather

sailwx.info

Track history (hours):
 
Tides and Currents Weather Stations Pressure Air Temp Water Temp Dewpoint Dewpoint Depression Visibility Wind Speed Wind Dir Waves Ship Positions

London Express

Last reported at 2016-Apr-29 03:00 UTC. Time now 2016-Apr-29 05:59 UTC.
Position N 14°36' W 096°24'.

Length 294 m; beam 32.3 m; draft 13.6 m.

Type: Ship. MMSI: 211262630.

Wind from 260 at 9 knots

Barometer 1010.8 mb
Air temperature 28.7 ° C
Visibility: greater than 5.4 NM
Dewpoint 22.1 ° C
Water temperature 30.0 ° C

Date/timePositionNaut miles runAvg speedWind from/ knotsBaromVisibWave heightAir tempDewpointWater temp
2016-Apr-29 03:00N 14°36' W 096°24'16418.3 260 / 91010.8 5.4 28.722.130.0
2016-Apr-28 18:00N 15°54' W 098°54'22018.4 270 / 111010.110.8 0.530.423.329.0
2016-Apr-28 06:00N 17°36' W 102°18'5217.2 280 / 111009.810.8 25.622.328.0
2016-Apr-28 03:00N 18°00' W 103°06'307 6.8 310 / 211008.8 5.4 24.721.426.0
2016-Apr-26 06:00N 20°42' W 107°42'19115.9 290 / 151012.910.8 21.817.824.0
2016-Apr-25 18:00N 22°24' W 110°36'12610.5 310 / 171014.410.8 1.022.014.424.0
2016-Apr-25 06:00N 23°42' W 112°24'9816.4 310 / 141015.410.8 18.512.722.0
2016-Apr-25 00:00N 25°00' W 113°30'10317.2 320 / 161013.910.8 1.024.611.920.0
2016-Apr-24 18:00N 26°24' W 114°36'39317.5 330 / 131016.910.8 1.022.910.219.0
2016-Apr-23 19:33N 32°22' W 117°44'1514.8
2016-Apr-23 18:33N 32°36' W 117°49'1413.7
2016-Apr-23 17:33N 32°49' W 117°54'1413.6
2016-Apr-23 16:33N 33°02' W 117°60'1313.1
2016-Apr-23 15:33N 33°14' W 118°04'1313.4
2016-Apr-23 14:33N 33°27' W 118°10'1311.2
2016-Apr-23 13:22N 33°40' W 118°15'4 0.5
2016-Apr-23 04:33N 33°44' W 118°15'0 0.0
2016-Apr-22 23:31N 33°44' W 118°15'0 0.0
2016-Apr-22 22:30N 33°44' W 118°15'0 0.0
2016-Apr-22 21:24N 33°44' W 118°15'0 0.0
2016-Apr-22 20:30N 33°44' W 118°15'1 0.5
2016-Apr-22 19:33N 33°44' W 118°15'7 5.3
2016-Apr-22 18:18N 33°37' W 118°15'18811.9
2016-Apr-22 02:28N 35°14' W 121°31'2613.2
2016-Apr-22 00:31N 35°35' W 121°49'1313.4
2016-Apr-21 23:32N 35°47' W 121°58'1313.9
2016-Apr-21 22:33N 35°59' W 122°05'1414.2
2016-Apr-21 21:33N 36°11' W 122°14'2 2.8
2016-Apr-21 21:00N 36°12' W 122°12'1430.8 170 / 161013.710.8 0.515.513.215.0
2016-Apr-21 20:33N 36°23' W 122°22'4413.7
2016-Apr-21 17:22N 37°04' W 122°41'1113.3
2016-Apr-21 16:33N 37°15' W 122°43'1313.1
2016-Apr-21 15:33N 37°28' W 122°44'1312.7
2016-Apr-21 14:33N 37°41' W 122°43'1312.7
2016-Apr-21 13:33N 37°49' W 122°31'10 9.6
2016-Apr-21 12:33N 37°48' W 122°18'0 0.0
2016-Apr-21 11:31N 37°48' W 122°18'0 0.0
2016-Apr-21 10:33N 37°48' W 122°18'0 0.0
2016-Apr-21 09:33N 37°48' W 122°18'0 0.0
2016-Apr-21 08:32N 37°48' W 122°18'0 0.0
2016-Apr-21 07:32N 37°48' W 122°18'0 0.0
2016-Apr-21 06:32N 37°48' W 122°18'0 0.0
2016-Apr-21 05:31N 37°48' W 122°18'0 0.0
2016-Apr-21 04:31N 37°48' W 122°18'0 0.0
2016-Apr-21 03:33N 37°48' W 122°18'0 0.0
2016-Apr-21 02:30N 37°48' W 122°18'0 0.0
2016-Apr-21 01:32N 37°48' W 122°18'0 0.0
2016-Apr-21 00:32N 37°48' W 122°18'0 0.0
2016-Apr-20 23:32N 37°48' W 122°18'0 0.1
2016-Apr-20 22:33N 37°48' W 122°18'3 3.0
2016-Apr-20 21:33N 37°48' W 122°22'1312.6
2016-Apr-20 20:34N 37°46' W 122°38'1110.6
2016-Apr-20 19:33N 37°48' W 122°51'1110.5
2016-Apr-20 18:33N 37°54' W 123°03'1010.3
2016-Apr-20 17:33N 37°60' W 123°13'1110.5
2016-Apr-20 16:33N 38°08' W 123°22'1110.8
2016-Apr-20 15:33N 38°15' W 123°31'1111.3
2016-Apr-20 14:33N 38°23' W 123°41'1211.6
2016-Apr-20 13:33N 38°32' W 123°51'1211.5
2016-Apr-20 12:33N 38°40' W 124°02'1211.6
2016-Apr-20 11:33N 38°48' W 124°12'1111.0
2016-Apr-20 10:33N 38°57' W 124°21'1110.7
2016-Apr-20 09:33N 39°07' W 124°25'2 3.0
2016-Apr-20 09:00N 39°06' W 124°24'12411.6 230 / 61013.010.8 14.112.115.0
2016-Apr-19 22:19N 41°05' W 125°06'811.0
2016-Apr-19 21:33N 41°14' W 125°07'2311.0
2016-Apr-19 19:30N 41°36' W 125°08'1311.0
2016-Apr-19 18:22N 41°49' W 125°08'1 3.6
2016-Apr-19 18:00N 41°48' W 125°06'1021.8 999 / 31015.9 5.4 0.515.2 7.813.0
2016-Apr-19 17:33N 41°58' W 125°07'1111.0
2016-Apr-19 16:33N 42°08' W 125°06'1511.8
2016-Apr-19 15:18N 42°23' W 125°04'3 4.3
2016-Apr-19 14:34N 42°26' W 125°04'1 1.1
2016-Apr-19 13:33N 42°27' W 125°05'1 1.1
2016-Apr-19 12:33N 42°28' W 125°05'1 1.1
2016-Apr-19 11:33N 42°30' W 125°05'1 1.0
2016-Apr-19 10:33N 42°31' W 125°06'1 0.9
2016-Apr-19 09:33N 42°31' W 125°06'1 2.5
2016-Apr-19 09:00N 42°30' W 125°06'2 4.8 030 / 31017.5 0.0 10.8 8.914.0
2016-Apr-19 08:33N 42°32' W 125°07'1 0.9
2016-Apr-19 07:33N 42°33' W 125°07'1 0.8
2016-Apr-19 06:34N 42°34' W 125°07'1 0.8
2016-Apr-19 05:33N 42°34' W 125°08'1 0.7
2016-Apr-19 04:33N 42°35' W 125°08'1 0.6
2016-Apr-19 03:33N 42°35' W 125°09'  
Track history (hours):
 
Tides and Currents Weather Stations Pressure Air Temp Water Temp Dewpoint Dewpoint Depression Visibility Wind Speed Wind Dir Waves Ship Positions

London Express

Last reported at 2016-Apr-29 03:00 UTC. Time now 2016-Apr-29 05:59 UTC.
Position N 14°36' W 096°24'.

Length 294 m; beam 32.3 m; draft 13.6 m.

Type: Ship. MMSI: 211262630.

Wind from 260 at 9 knots

Barometer 1010.8 mb
Air temperature 28.7 ° C
Visibility: greater than 5.4 NM
Dewpoint 22.1 ° C
Water temperature 30.0 ° C

Date/timePositionNaut miles runAvg speedWind from/ knotsBaromVisibWave heightAir tempDewpointWater temp
2016-Apr-29 03:00N 14°36' W 096°24'16418.3 260 / 91010.8 5.4 28.722.130.0
2016-Apr-28 18:00N 15°54' W 098°54'22018.4 270 / 111010.110.8 0.530.423.329.0
2016-Apr-28 06:00N 17°36' W 102°18'5217.2 280 / 111009.810.8 25.622.328.0
2016-Apr-28 03:00N 18°00' W 103°06'307 6.8 310 / 211008.8 5.4 24.721.426.0
2016-Apr-26 06:00N 20°42' W 107°42'19115.9 290 / 151012.910.8 21.817.824.0
2016-Apr-25 18:00N 22°24' W 110°36'12610.5 310 / 171014.410.8 1.022.014.424.0
2016-Apr-25 06:00N 23°42' W 112°24'9816.4 310 / 141015.410.8 18.512.722.0
2016-Apr-25 00:00N 25°00' W 113°30'10317.2 320 / 161013.910.8 1.024.611.920.0
2016-Apr-24 18:00N 26°24' W 114°36'39317.5 330 / 131016.910.8 1.022.910.219.0
2016-Apr-23 19:33N 32°22' W 117°44'1514.8
2016-Apr-23 18:33N 32°36' W 117°49'1413.7
2016-Apr-23 17:33N 32°49' W 117°54'1413.6
2016-Apr-23 16:33N 33°02' W 117°60'1313.1
2016-Apr-23 15:33N 33°14' W 118°04'1313.4
2016-Apr-23 14:33N 33°27' W 118°10'1311.2
2016-Apr-23 13:22N 33°40' W 118°15'4 0.5
2016-Apr-23 04:33N 33°44' W 118°15'0 0.0
2016-Apr-22 23:31N 33°44' W 118°15'0 0.0
2016-Apr-22 22:30N 33°44' W 118°15'0 0.0
2016-Apr-22 21:24N 33°44' W 118°15'0 0.0
2016-Apr-22 20:30N 33°44' W 118°15'1 0.5
2016-Apr-22 19:33N 33°44' W 118°15'7 5.3
2016-Apr-22 18:18N 33°37' W 118°15'18811.9
2016-Apr-22 02:28N 35°14' W 121°31'2613.2
2016-Apr-22 00:31N 35°35' W 121°49'1313.4
2016-Apr-21 23:32N 35°47' W 121°58'1313.9
2016-Apr-21 22:33N 35°59' W 122°05'1414.2
2016-Apr-21 21:33N 36°11' W 122°14'2 2.8
2016-Apr-21 21:00N 36°12' W 122°12'1430.8 170 / 161013.710.8 0.515.513.215.0
2016-Apr-21 20:33N 36°23' W 122°22'4413.7
2016-Apr-21 17:22N 37°04' W 122°41'1113.3
2016-Apr-21 16:33N 37°15' W 122°43'1313.1
2016-Apr-21 15:33N 37°28' W 122°44'1312.7
2016-Apr-21 14:33N 37°41' W 122°43'1312.7
2016-Apr-21 13:33N 37°49' W 122°31'10 9.6
2016-Apr-21 12:33N 37°48' W 122°18'0 0.0
2016-Apr-21 11:31N 37°48' W 122°18'0 0.0
2016-Apr-21 10:33N 37°48' W 122°18'0 0.0
2016-Apr-21 09:33N 37°48' W 122°18'0 0.0
2016-Apr-21 08:32N 37°48' W 122°18'0 0.0
2016-Apr-21 07:32N 37°48' W 122°18'0 0.0
2016-Apr-21 06:32N 37°48' W 122°18'0 0.0
2016-Apr-21 05:31N 37°48' W 122°18'0 0.0
2016-Apr-21 04:31N 37°48' W 122°18'0 0.0
2016-Apr-21 03:33N 37°48' W 122°18'0 0.0
2016-Apr-21 02:30N 37°48' W 122°18'0 0.0
2016-Apr-21 01:32N 37°48' W 122°18'0 0.0
2016-Apr-21 00:32N 37°48' W 122°18'0 0.0
2016-Apr-20 23:32N 37°48' W 122°18'0 0.1
2016-Apr-20 22:33N 37°48' W 122°18'3 3.0
2016-Apr-20 21:33N 37°48' W 122°22'1312.6
2016-Apr-20 20:34N 37°46' W 122°38'1110.6
2016-Apr-20 19:33N 37°48' W 122°51'1110.5
2016-Apr-20 18:33N 37°54' W 123°03'1010.3
2016-Apr-20 17:33N 37°60' W 123°13'1110.5
2016-Apr-20 16:33N 38°08' W 123°22'1110.8
2016-Apr-20 15:33N 38°15' W 123°31'1111.3
2016-Apr-20 14:33N 38°23' W 123°41'1211.6
2016-Apr-20 13:33N 38°32' W 123°51'1211.5
2016-Apr-20 12:33N 38°40' W 124°02'1211.6
2016-Apr-20 11:33N 38°48' W 124°12'1111.0
2016-Apr-20 10:33N 38°57' W 124°21'1110.7
2016-Apr-20 09:33N 39°07' W 124°25'2 3.0
2016-Apr-20 09:00N 39°06' W 124°24'12411.6 230 / 61013.010.8 14.112.115.0
2016-Apr-19 22:19N 41°05' W 125°06'811.0
2016-Apr-19 21:33N 41°14' W 125°07'2311.0
2016-Apr-19 19:30N 41°36' W 125°08'1311.0
2016-Apr-19 18:22N 41°49' W 125°08'1 3.6
2016-Apr-19 18:00N 41°48' W 125°06'1021.8 999 / 31015.9 5.4 0.515.2 7.813.0
2016-Apr-19 17:33N 41°58' W 125°07'1111.0
2016-Apr-19 16:33N 42°08' W 125°06'1511.8
2016-Apr-19 15:18N 42°23' W 125°04'3 4.3
2016-Apr-19 14:34N 42°26' W 125°04'1 1.1
2016-Apr-19 13:33N 42°27' W 125°05'1 1.1
2016-Apr-19 12:33N 42°28' W 125°05'1 1.1
2016-Apr-19 11:33N 42°30' W 125°05'1 1.0
2016-Apr-19 10:33N 42°31' W 125°06'1 0.9
2016-Apr-19 09:33N 42°31' W 125°06'1 2.5
2016-Apr-19 09:00N 42°30' W 125°06'2 4.8 030 / 31017.5 0.0 10.8 8.914.0
2016-Apr-19 08:33N 42°32' W 125°07'1 0.9
2016-Apr-19 07:33N 42°33' W 125°07'1 0.8
2016-Apr-19 06:34N 42°34' W 125°07'1 0.8
2016-Apr-19 05:33N 42°34' W 125°08'1 0.7
2016-Apr-19 04:33N 42°35' W 125°08'1 0.6
2016-Apr-19 03:33N 42°35' W 125°09'  

Dump ship's entire track history